Pagina principale
METAR-TAF:

METAR-TAF

Aeroporti :

Aeroporto Internazionale di Khartum

Khartum, Sudan

latitudine: 15-36N, longitudine: 032-33E, altezza: 382 m

Osservazione

Il bollettino è stato emesso 25 minuti fa, alle 22:30 UTC
Vento 5 kt da sud/sud-ovest
Temperature 27°C
Umidità 79%
Pressione 1012 hPa
Visibilità 10 km o più
nessuna nube inferiore a 1500 m e nessun cumulonembo

METAR: HSSS 152230Z 20005KT CAVOK 27/23 Q1012 NOSIG

Ora: 01:55 (22:55 UTC)

Previsione

Il bollettino è stato emesso 5 ore e 55 minuti fa, alle 17:00 UTC
Previsione valida dal 15 alle 18 UTC al 16 alle 24 UTC
Vento 8 kt da sud/sud-ovest con raffiche fino a 18 kt
Visibilità 10 km o più
Poco nuvoloso ad un'altezza di 4000 ft
Nubi sparse ad un'altezza di 14000 ft
Probabilità 30% :
Temporaneamente
dal 16 alle 00 UTC al 16 alle 03 UTC
Visibilità: 8000 m
Nuvoloso ad un'altezza di 14000 ft
rovesci di pioggia

TAF: HSSS 151700Z 1518/1624 21008G18KT 9999 FEW040 SCT140 PROB30 TEMPO 1600/1603 8000 SHRA BKN140

Osservazioni e previsioni meteorologiche di più di 4000 aeroporti (messaggi METAR e TAF).

Le stazioni disponibili sono rappresentate dai dischi gialli e rossi sulla carta.

Puntare il mouse per vedere il nome della stazione.

Clicca sopra per visualizzare le osservazioni e previsioni meteorologiche.

Per cambiare la mappa : fare clic sui pulsanti verdi con una croce nera per ingrandire, il pulsante verde con un trattino per diminuire, o sulla freccia verde per le mappe adiacenti.


METAR-TAF: